Time;durP1;ratioP1;P1;durP2;ratioP2;P2;SDS_P1;SDS_P2;PMS_P1;PMS_P2;Temp;Humidity;BMP_temperature;BMP_pressure;BME280_temperature;BME280_humidity;BME280_pressure;Samples;Min_cycle;Max_cycle;Signal;HPM_P1;HPM_P2
2024/02/04 00:02:13;;;;;;;8.15;4.82;;;;;;;;;;4906146;29;20224;-90
2024/02/04 00:05:19;;;;;;;8.60;5.32;;;;;;;;;;4905467;29;20240;-88
2024/02/04 00:08:26;;;;;;;10.32;5.80;;;;;;;;;;4921772;29;20266;-89
2024/02/04 00:11:32;;;;;;;9.20;5.32;;;;;;;;;;4886834;29;20241;-89
2024/02/04 00:14:37;;;;;;;8.80;5.47;;;;;;;;;;4895746;29;20224;-89
2024/02/04 00:17:42;;;;;;;15.82;7.93;;;;;;;;;;4905132;29;20200;-91
2024/02/04 00:20:53;;;;;;;10.38;5.32;;;;;;;;;;4914686;29;20208;-87
2024/02/04 00:23:59;;;;;;;13.43;6.38;;;;;;;;;;4917297;29;20212;-89
2024/02/04 00:27:04;;;;;;;11.13;5.95;;;;;;;;;;4907227;29;20571;-90
2024/02/04 00:30:10;;;;;;;13.40;6.75;;;;;;;;;;4914578;29;20188;-87
2024/02/04 00:33:16;;;;;;;14.15;7.13;;;;;;;;;;4909975;29;20211;-89
2024/02/04 00:36:22;;;;;;;10.77;5.95;;;;;;;;;;4916194;29;20192;-91
2024/02/04 00:39:29;;;;;;;15.20;8.00;;;;;;;;;;4930040;29;20303;-92
2024/02/04 00:42:35;;;;;;;13.82;6.90;;;;;;;;;;4929181;29;20573;-88
2024/02/04 00:45:40;;;;;;;12.80;6.32;;;;;;;;;;4915553;29;20884;-89
2024/02/04 00:48:46;;;;;;;12.80;7.43;;;;;;;;;;4912354;29;20185;-89
2024/02/04 00:51:51;;;;;;;10.85;5.85;;;;;;;;;;4908896;29;20197;-90
2024/02/04 00:54:59;;;;;;;9.05;5.65;;;;;;;;;;4911724;29;20189;-90
2024/02/04 00:58:05;;;;;;;15.30;6.90;;;;;;;;;;4903029;29;20209;-89
2024/02/04 01:01:11;;;;;;;10.93;5.95;;;;;;;;;;4890057;29;20281;-89
2024/02/04 01:04:15;;;;;;;7.65;4.55;;;;;;;;;;4895235;29;20220;-91
2024/02/04 01:07:21;;;;;;;12.52;6.13;;;;;;;;;;4908441;29;20227;-88
2024/02/04 01:10:28;;;;;;;15.60;6.75;;;;;;;;;;4910166;29;20201;-88
2024/02/04 01:13:39;;;;;;;20.13;8.02;;;;;;;;;;4912879;29;20215;-89
2024/02/04 01:16:45;;;;;;;17.45;7.40;;;;;;;;;;4912262;29;20196;-91
2024/02/04 01:19:50;;;;;;;14.55;6.78;;;;;;;;;;4897642;29;20612;-90
2024/02/04 01:22:56;;;;;;;17.83;8.32;;;;;;;;;;4914656;29;20216;-90
2024/02/04 01:26:04;;;;;;;19.35;8.25;;;;;;;;;;4903106;29;20236;-90
2024/02/04 01:29:10;;;;;;;14.52;6.45;;;;;;;;;;4903068;29;20200;-90
2024/02/04 01:32:16;;;;;;;9.15;5.00;;;;;;;;;;4918210;29;20193;-89
2024/02/04 01:35:21;;;;;;;7.38;4.53;;;;;;;;;;4919853;29;20200;-90
2024/02/04 01:38:31;;;;;;;19.73;8.98;;;;;;;;;;4916546;29;20284;-89
2024/02/04 01:41:39;;;;;;;15.32;6.90;;;;;;;;;;4911544;29;20228;-88
2024/02/04 01:44:44;;;;;;;14.70;7.20;;;;;;;;;;4911050;29;20213;-88
2024/02/04 01:47:50;;;;;;;12.88;6.30;;;;;;;;;;4910292;29;20200;-89
2024/02/04 01:50:56;;;;;;;16.35;6.97;;;;;;;;;;4910439;29;20192;-91
2024/02/04 01:54:01;;;;;;;17.17;8.25;;;;;;;;;;4891327;29;20209;-92
2024/02/04 01:57:08;;;;;;;16.00;6.53;;;;;;;;;;4891410;29;20205;-90
2024/02/04 02:00:14;;;;;;;27.42;10.52;;;;;;;;;;4900929;29;20311;-89
2024/02/04 02:03:19;;;;;;;9.18;5.38;;;;;;;;;;4929781;29;20725;-88
2024/02/04 02:06:25;;;;;;;12.65;6.45;;;;;;;;;;4929609;29;20224;-87
2024/02/04 02:09:31;;;;;;;7.97;4.78;;;;;;;;;;4895605;29;20200;-90
2024/02/04 02:12:41;;;;;;;8.13;4.75;;;;;;;;;;4903292;29;20225;-88
2024/02/04 02:15:49;;;;;;;10.18;5.47;;;;;;;;;;4919298;29;20204;-91
2024/02/04 02:18:56;;;;;;;12.90;5.75;;;;;;;;;;4909397;29;20196;-89
2024/02/04 02:22:04;;;;;;;15.80;6.93;;;;;;;;;;4891303;29;20315;-89
2024/02/04 02:25:12;;;;;;;9.70;5.57;;;;;;;;;;4895324;29;20220;-89
2024/02/04 02:28:17;;;;;;;6.85;4.57;;;;;;;;;;4910921;29;20197;-88
2024/02/04 02:31:22;;;;;;;9.32;5.43;;;;;;;;;;4911248;29;20204;-92
2024/02/04 02:34:29;;;;;;;8.30;4.95;;;;;;;;;;4908017;29;20205;-89
2024/02/04 02:37:38;;;;;;;7.65;5.15;;;;;;;;;;4920755;29;20220;-88
2024/02/04 02:40:47;;;;;;;7.88;5.10;;;;;;;;;;4907603;29;20340;-92
2024/02/04 02:43:53;;;;;;;7.78;4.95;;;;;;;;;;4890262;29;20360;-88
2024/02/04 02:46:58;;;;;;;9.43;5.70;;;;;;;;;;4888930;29;20188;-90
2024/02/04 02:50:04;;;;;;;8.50;5.40;;;;;;;;;;4888427;29;20212;-91
2024/02/04 02:53:09;;;;;;;8.88;5.35;;;;;;;;;;4889136;29;20193;-88
2024/02/04 02:56:15;;;;;;;8.95;5.65;;;;;;;;;;4888807;29;20661;-91
2024/02/04 02:59:20;;;;;;;8.68;5.40;;;;;;;;;;4905222;29;20216;-91
2024/02/04 03:02:25;;;;;;;11.25;5.70;;;;;;;;;;4908251;29;20211;-90
2024/02/04 03:05:31;;;;;;;8.90;5.65;;;;;;;;;;4920452;29;20340;-92
2024/02/04 03:08:36;;;;;;;8.63;4.75;;;;;;;;;;4914526;29;20216;-89
2024/02/04 03:11:43;;;;;;;9.77;5.20;;;;;;;;;;4890377;29;20308;-90
2024/02/04 03:14:49;;;;;;;7.22;5.10;;;;;;;;;;4889880;29;20204;-89
2024/02/04 03:17:54;;;;;;;7.97;4.88;;;;;;;;;;4890242;29;20197;-90
2024/02/04 03:20:59;;;;;;;8.30;4.90;;;;;;;;;;4890650;29;20556;-89
2024/02/04 03:24:04;;;;;;;8.40;4.45;;;;;;;;;;4902718;29;20732;-88
2024/02/04 03:27:11;;;;;;;7.07;4.30;;;;;;;;;;4907029;29;20220;-89
2024/02/04 03:30:16;;;;;;;9.63;4.70;;;;;;;;;;4908013;29;20216;-89
2024/02/04 03:33:21;;;;;;;7.97;4.95;;;;;;;;;;4904322;29;20252;-88
2024/02/04 03:36:27;;;;;;;7.47;4.47;;;;;;;;;;4914980;29;20527;-89
2024/02/04 03:39:32;;;;;;;9.38;4.63;;;;;;;;;;4906511;29;20321;-89
2024/02/04 03:42:40;;;;;;;9.25;4.60;;;;;;;;;;4907123;29;20287;-89
2024/02/04 03:45:45;;;;;;;6.20;4.10;;;;;;;;;;4912107;29;20231;-89
2024/02/04 03:48:50;;;;;;;9.13;4.25;;;;;;;;;;4925748;29;20192;-88
2024/02/04 03:51:55;;;;;;;8.52;4.57;;;;;;;;;;4891963;29;20207;-90
2024/02/04 03:55:00;;;;;;;7.68;4.82;;;;;;;;;;4906980;29;20238;-89
2024/02/04 03:58:09;;;;;;;8.98;5.32;;;;;;;;;;4908090;29;20204;-89
2024/02/04 04:01:14;;;;;;;9.40;4.80;;;;;;;;;;4924516;29;20195;-88
2024/02/04 04:04:19;;;;;;;8.35;4.95;;;;;;;;;;4906232;29;20312;-88
2024/02/04 04:07:24;;;;;;;11.60;5.65;;;;;;;;;;4907372;29;20266;-89
2024/02/04 04:10:29;;;;;;;9.07;5.45;;;;;;;;;;4905490;29;20268;-90
2024/02/04 04:13:36;;;;;;;8.80;5.40;;;;;;;;;;4906535;29;20205;-88
2024/02/04 04:16:41;;;;;;;12.18;5.60;;;;;;;;;;4906628;29;20187;-89
2024/02/04 04:19:46;;;;;;;9.45;5.05;;;;;;;;;;4911243;29;20228;-91
2024/02/04 04:22:51;;;;;;;11.90;6.40;;;;;;;;;;4911526;29;20203;-88
2024/02/04 04:25:56;;;;;;;10.10;5.78;;;;;;;;;;4906478;29;20244;-89
2024/02/04 04:29:02;;;;;;;9.80;5.22;;;;;;;;;;4905448;29;20237;-89
2024/02/04 04:32:08;;;;;;;13.52;6.18;;;;;;;;;;4906567;29;20241;-88
2024/02/04 04:35:13;;;;;;;14.80;6.70;;;;;;;;;;4906926;29;20216;-91
2024/02/04 04:38:18;;;;;;;9.07;5.40;;;;;;;;;;4907015;29;20276;-91
2024/02/04 04:41:23;;;;;;;12.82;6.05;;;;;;;;;;4906809;29;20212;-89
2024/02/04 04:44:29;;;;;;;9.75;5.68;;;;;;;;;;4905843;29;20244;-90
2024/02/04 04:47:35;;;;;;;9.95;5.30;;;;;;;;;;4894364;29;20696;-88
2024/02/04 04:50:40;;;;;;;12.63;5.75;;;;;;;;;;4886643;29;20190;-89
2024/02/04 04:53:46;;;;;;;14.98;7.32;;;;;;;;;;4897577;29;20223;-89
2024/02/04 04:56:51;;;;;;;11.57;5.50;;;;;;;;;;4908775;29;20212;-91
2024/02/04 04:59:58;;;;;;;13.43;5.93;;;;;;;;;;4910291;29;20573;-91
2024/02/04 05:03:03;;;;;;;9.65;5.43;;;;;;;;;;4910473;29;20231;-87
2024/02/04 05:06:08;;;;;;;10.30;5.40;;;;;;;;;;4909036;29;20689;-90
2024/02/04 05:09:13;;;;;;;10.40;5.70;;;;;;;;;;4908527;29;20212;-88
2024/02/04 05:12:19;;;;;;;14.00;5.80;;;;;;;;;;4908784;29;20215;-89
2024/02/04 05:15:26;;;;;;;9.55;4.80;;;;;;;;;;4908409;29;20220;-90
2024/02/04 05:18:32;;;;;;;10.20;4.90;;;;;;;;;;4913030;29;20231;-89
2024/02/04 05:21:40;;;;;;;8.05;4.93;;;;;;;;;;4911748;29;20199;-88
2024/02/04 05:24:45;;;;;;;8.55;4.50;;;;;;;;;;4914594;29;20204;-90
2024/02/04 05:27:50;;;;;;;8.57;4.68;;;;;;;;;;4907943;29;20223;-88
2024/02/04 05:30:56;;;;;;;8.55;4.50;;;;;;;;;;4890062;29;20205;-90
2024/02/04 05:34:07;;;;;;;9.23;4.55;;;;;;;;;;4889571;29;20216;-90
2024/02/04 05:37:13;;;;;;;9.15;4.50;;;;;;;;;;4894491;29;20283;-87
2024/02/04 05:40:20;;;;;;;8.10;4.65;;;;;;;;;;4891942;29;20595;-90
2024/02/04 05:43:25;;;;;;;6.38;3.95;;;;;;;;;;4890110;29;20272;-88
2024/02/04 05:46:32;;;;;;;10.35;4.45;;;;;;;;;;4889642;29;20348;-91
2024/02/04 05:49:36;;;;;;;8.70;4.40;;;;;;;;;;4906115;29;20208;-88
2024/02/04 05:52:42;;;;;;;6.80;4.10;;;;;;;;;;4917595;29;20225;-88
2024/02/04 05:55:48;;;;;;;8.05;4.40;;;;;;;;;;4903313;29;20224;-89
2024/02/04 05:58:53;;;;;;;7.65;4.03;;;;;;;;;;4908648;29;20197;-91
2024/02/04 06:01:59;;;;;;;8.27;3.80;;;;;;;;;;4909716;29;20216;-92
2024/02/04 06:05:04;;;;;;;6.05;4.13;;;;;;;;;;4909235;29;20789;-90
2024/02/04 06:08:09;;;;;;;10.82;4.57;;;;;;;;;;4917962;29;20366;-90
2024/02/04 06:11:14;;;;;;;8.65;4.25;;;;;;;;;;4909339;29;20212;-89
2024/02/04 06:14:23;;;;;;;6.20;3.92;;;;;;;;;;4907662;29;20216;-87
2024/02/04 06:17:30;;;;;;;7.60;4.38;;;;;;;;;;4909272;29;20204;-90
2024/02/04 06:20:35;;;;;;;7.55;4.28;;;;;;;;;;4908830;29;20233;-89
2024/02/04 06:23:41;;;;;;;7.57;4.32;;;;;;;;;;4891758;29;20205;-88
2024/02/04 06:26:47;;;;;;;10.80;4.43;;;;;;;;;;4892220;29;20216;-90
2024/02/04 06:29:53;;;;;;;7.45;4.68;;;;;;;;;;4891016;29;20197;-89
2024/02/04 06:32:59;;;;;;;7.75;4.70;;;;;;;;;;4903884;29;20241;-88
2024/02/04 06:36:04;;;;;;;7.45;4.18;;;;;;;;;;4904513;29;20216;-88
2024/02/04 06:39:09;;;;;;;8.20;4.15;;;;;;;;;;4907418;29;20204;-89
2024/02/04 06:42:14;;;;;;;8.75;4.32;;;;;;;;;;4909108;29;20216;-88
2024/02/04 06:45:19;;;;;;;5.68;3.63;;;;;;;;;;4897927;29;20294;-90
2024/02/04 06:48:26;;;;;;;7.72;4.13;;;;;;;;;;4908106;29;20181;-89
2024/02/04 06:51:32;;;;;;;6.70;3.65;;;;;;;;;;4909505;29;20253;-88
2024/02/04 06:54:37;;;;;;;6.85;3.97;;;;;;;;;;4910510;29;20661;-90
2024/02/04 06:57:43;;;;;;;11.20;3.95;;;;;;;;;;4922303;29;20204;-91
2024/02/04 07:00:48;;;;;;;6.30;3.53;;;;;;;;;;4912166;29;20275;-89
2024/02/04 07:03:55;;;;;;;7.38;3.85;;;;;;;;;;4912578;29;20206;-90
2024/02/04 07:07:00;;;;;;;6.32;3.83;;;;;;;;;;4908902;29;20587;-90
2024/02/04 07:10:05;;;;;;;7.35;3.92;;;;;;;;;;4918550;29;20253;-90
2024/02/04 07:13:11;;;;;;;5.88;3.53;;;;;;;;;;4911674;29;20213;-90
2024/02/04 07:16:16;;;;;;;8.10;3.85;;;;;;;;;;4893062;29;20237;-89
2024/02/04 07:19:23;;;;;;;7.32;3.95;;;;;;;;;;4891406;29;20201;-91
2024/02/04 07:22:28;;;;;;;7.65;4.30;;;;;;;;;;4892429;29;20196;-88
2024/02/04 07:25:35;;;;;;;9.63;4.47;;;;;;;;;;4912053;29;20207;-91
2024/02/04 07:28:40;;;;;;;5.38;3.47;;;;;;;;;;4911301;29;20240;-89
2024/02/04 07:31:45;;;;;;;6.57;3.78;;;;;;;;;;4910421;29;20317;-90
2024/02/04 07:34:52;;;;;;;5.93;3.92;;;;;;;;;;4909783;29;20337;-90
2024/02/04 07:37:57;;;;;;;6.73;3.60;;;;;;;;;;4928223;29;20196;-89
2024/02/04 07:41:02;;;;;;;6.47;3.45;;;;;;;;;;4916890;29;20286;-92
2024/02/04 07:44:07;;;;;;;5.82;3.70;;;;;;;;;;4909746;29;20345;-88
2024/02/04 07:47:13;;;;;;;6.88;3.80;;;;;;;;;;4909329;29;20224;-90
2024/02/04 07:50:20;;;;;;;6.22;3.13;;;;;;;;;;4911956;29;20213;-89
2024/02/04 07:53:25;;;;;;;7.55;4.05;;;;;;;;;;4890200;29;20193;-90
2024/02/04 07:56:30;;;;;;;5.72;3.10;;;;;;;;;;4911203;29;20220;-89
2024/02/04 07:59:36;;;;;;;7.95;4.20;;;;;;;;;;4895496;29;20260;-88
2024/02/04 08:02:41;;;;;;;7.15;3.72;;;;;;;;;;4891744;29;20181;-90
2024/02/04 08:05:55;;;;;;;5.32;3.60;;;;;;;;;;4911545;29;20217;-89
2024/02/04 08:09:01;;;;;;;6.07;3.30;;;;;;;;;;4904344;29;20237;-89
2024/02/04 08:12:06;;;;;;;6.45;3.40;;;;;;;;;;4907190;29;20219;-90
2024/02/04 08:15:11;;;;;;;5.22;3.30;;;;;;;;;;4906521;29;20588;-90
2024/02/04 08:18:16;;;;;;;6.50;3.67;;;;;;;;;;4907649;29;20188;-88
2024/02/04 08:21:23;;;;;;;6.80;3.40;;;;;;;;;;4907042;29;20225;-92
2024/02/04 08:24:31;;;;;;;0.50;0.50;;;;;;;;;;4908849;29;20217;-92
2024/02/04 08:27:37;;;;;;;0.38;0.38;;;;;;;;;;4908855;29;20252;-90
2024/02/04 08:30:42;;;;;;;0.30;0.30;;;;;;;;;;4889245;29;20665;-90
2024/02/04 08:33:47;;;;;;;0.52;0.52;;;;;;;;;;4919155;29;20252;-91
2024/02/04 08:36:53;;;;;;;0.85;0.60;;;;;;;;;;4908705;29;20235;-90
2024/02/04 08:40:04;;;;;;;0.70;0.70;;;;;;;;;;4907313;29;20212;-90
2024/02/04 08:43:09;;;;;;;0.50;0.50;;;;;;;;;;4918689;29;20215;-89
2024/02/04 08:46:14;;;;;;;0.82;0.82;;;;;;;;;;4909552;29;20205;-90
2024/02/04 08:49:20;;;;;;;0.40;0.40;;;;;;;;;;4908629;29;20216;-92
2024/02/04 08:52:28;;;;;;;1.17;0.70;;;;;;;;;;4915219;29;20277;-89
2024/02/04 08:55:33;;;;;;;1.65;0.50;;;;;;;;;;4906748;29;20212;-90
2024/02/04 08:58:38;;;;;;;0.57;0.57;;;;;;;;;;4889743;29;20322;-88
2024/02/04 09:01:43;;;;;;;0.40;0.40;;;;;;;;;;4897668;29;20220;-91
2024/02/04 09:04:49;;;;;;;1.02;0.70;;;;;;;;;;4896681;29;20286;-91
2024/02/04 09:07:55;;;;;;;0.63;0.60;;;;;;;;;;4895941;29;20715;-90
2024/02/04 09:11:01;;;;;;;1.20;0.90;;;;;;;;;;4906119;29;20188;-88
2024/02/04 09:14:06;;;;;;;1.17;1.08;;;;;;;;;;4907167;29;20228;-90
2024/02/04 09:17:13;;;;;;;0.63;0.63;;;;;;;;;;4908169;29;20373;-89
2024/02/04 09:20:18;;;;;;;0.40;0.40;;;;;;;;;;4907337;29;20651;-91
2024/02/04 09:23:24;;;;;;;0.30;0.30;;;;;;;;;;4898543;29;20297;-89
2024/02/04 09:26:30;;;;;;;0.52;0.52;;;;;;;;;;4907142;29;20231;-90
2024/02/04 09:29:35;;;;;;;0.70;0.70;;;;;;;;;;4895740;29;20201;-92
2024/02/04 09:32:41;;;;;;;0.40;0.40;;;;;;;;;;4900143;29;20216;-89
2024/02/04 09:35:55;;;;;;;3.15;0.63;;;;;;;;;;4911515;29;20206;-90
2024/02/04 09:39:13;;;;;;;0.45;0.45;;;;;;;;;;4900762;29;20229;-90
2024/02/04 09:42:21;;;;;;;0.30;0.30;;;;;;;;;;4935388;29;20180;-91
2024/02/04 09:45:27;;;;;;;3.17;0.52;;;;;;;;;;4891096;29;20194;-89
2024/02/04 09:48:34;;;;;;;0.40;0.40;;;;;;;;;;4891925;29;20232;-90
2024/02/04 09:51:39;;;;;;;0.40;0.40;;;;;;;;;;4904729;29;20204;-90
2024/02/04 09:54:47;;;;;;;1.65;1.00;;;;;;;;;;4914747;29;20203;-87
2024/02/04 09:57:53;;;;;;;0.60;0.60;;;;;;;;;;4904777;29;20255;-89
2024/02/04 10:00:59;;;;;;;1.40;0.50;;;;;;;;;;4908348;29;20196;-89
2024/02/04 10:04:04;;;;;;;1.65;0.52;;;;;;;;;;4906182;29;20283;-90
2024/02/04 10:07:14;;;;;;;7.78;1.20;;;;;;;;;;4922687;29;20228;-92
2024/02/04 10:10:22;;;;;;;0.77;0.77;;;;;;;;;;4900956;29;20196;-89
2024/02/04 10:13:28;;;;;;;0.52;0.52;;;;;;;;;;4929007;29;20244;-88
2024/02/04 10:16:33;;;;;;;0.30;0.30;;;;;;;;;;4904214;29;20212;-90
2024/02/04 10:19:39;;;;;;;0.45;0.45;;;;;;;;;;4913606;29;20200;-90
2024/02/04 10:22:44;;;;;;;1.02;0.90;;;;;;;;;;4899448;29;20204;-91
2024/02/04 10:25:58;;;;;;;0.35;0.35;;;;;;;;;;4920533;29;20215;-90
2024/02/04 10:29:04;;;;;;;0.30;0.30;;;;;;;;;;4917905;29;20180;-89
2024/02/04 10:32:09;;;;;;;0.40;0.40;;;;;;;;;;4911538;29;20192;-90
2024/02/04 10:35:18;;;;;;;0.60;0.60;;;;;;;;;;4922214;29;20201;-90
2024/02/04 10:38:25;;;;;;;0.77;0.57;;;;;;;;;;4920465;29;20196;-89
2024/02/04 10:41:34;;;;;;;0.40;0.40;;;;;;;;;;4922266;29;20244;-90
2024/02/04 10:44:44;;;;;;;0.50;0.50;;;;;;;;;;4922814;29;20203;-89
2024/02/04 10:47:57;;;;;;;0.45;0.45;;;;;;;;;;4900488;29;20240;-88
2024/02/04 10:51:06;;;;;;;1.42;0.65;;;;;;;;;;4912082;29;20208;-90
2024/02/04 10:54:15;;;;;;;0.60;0.52;;;;;;;;;;4912969;29;20331;-91
2024/02/04 10:57:27;;;;;;;0.40;0.40;;;;;;;;;;4902069;29;20197;-90
2024/02/04 11:00:32;;;;;;;0.60;0.43;;;;;;;;;;4907040;29;20203;-90
2024/02/04 11:03:46;;;;;;;1.55;0.65;;;;;;;;;;4910496;29;20215;-90
2024/02/04 11:06:52;;;;;;;0.40;0.40;;;;;;;;;;4915997;29;20199;-88
2024/02/04 11:09:59;;;;;;;0.30;0.30;;;;;;;;;;4917431;29;20260;-89
2024/02/04 11:13:08;;;;;;;0.47;0.47;;;;;;;;;;4910236;29;20316;-89
2024/02/04 11:16:16;;;;;;;0.60;0.60;;;;;;;;;;4910493;29;20225;-89
2024/02/04 11:19:28;;;;;;;0.30;0.30;;;;;;;;;;4918889;29;20196;-90
2024/02/04 11:22:45;;;;;;;0.40;0.40;;;;;;;;;;4922685;29;20263;-90
2024/02/04 11:25:53;;;;;;;1.00;0.90;;;;;;;;;;4912410;29;20263;-89
2024/02/04 11:28:59;;;;;;;0.45;0.45;;;;;;;;;;4913374;29;20228;-89
2024/02/04 11:32:06;;;;;;;0.30;0.30;;;;;;;;;;4920601;29;20360;-87
2024/02/04 11:35:11;;;;;;;0.50;0.45;;;;;;;;;;4914960;29;20208;-90
2024/02/04 11:38:19;;;;;;;0.63;0.50;;;;;;;;;;4905288;29;20196;-90
2024/02/04 11:41:26;;;;;;;0.30;0.30;;;;;;;;;;4903626;29;20205;-89
2024/02/04 11:44:33;;;;;;;0.30;0.30;;;;;;;;;;4920375;29;20208;-89
2024/02/04 11:47:38;;;;;;;0.68;0.60;;;;;;;;;;4919900;29;20223;-90
2024/02/04 11:50:44;;;;;;;0.35;0.35;;;;;;;;;;4906466;29;20201;-90
2024/02/04 11:53:49;;;;;;;0.50;0.50;;;;;;;;;;4899740;29;20207;-90
2024/02/04 11:56:57;;;;;;;0.30;0.30;;;;;;;;;;4915605;29;20205;-90
2024/02/04 12:03:35;;;;;;;0.50;0.50;;;;;;;;;;4913417;29;20213;-89
2024/02/04 12:06:42;;;;;;;0.40;0.40;;;;;;;;;;4895553;29;20209;-88
2024/02/04 12:09:53;;;;;;;0.35;0.35;;;;;;;;;;4903294;29;20212;-89
2024/02/04 12:13:00;;;;;;;0.50;0.50;;;;;;;;;;4913134;29;20188;-91
2024/02/04 12:16:11;;;;;;;0.75;0.57;;;;;;;;;;4911941;29;20208;-89
2024/02/04 12:19:16;;;;;;;0.65;0.65;;;;;;;;;;4911814;29;20196;-92
2024/02/04 12:22:25;;;;;;;1.15;0.45;;;;;;;;;;4926681;29;20196;-89
2024/02/04 12:25:30;;;;;;;0.32;0.32;;;;;;;;;;4916020;29;20345;-91
2024/02/04 12:28:36;;;;;;;0.73;0.60;;;;;;;;;;4925585;29;20217;-88
2024/02/04 12:31:45;;;;;;;0.30;0.30;;;;;;;;;;4909871;29;20723;-91
2024/02/04 12:34:53;;;;;;;3.47;1.05;;;;;;;;;;4915792;29;20216;-92
2024/02/04 12:38:01;;;;;;;0.38;0.38;;;;;;;;;;4905376;29;20196;-90
2024/02/04 12:41:07;;;;;;;0.85;0.85;;;;;;;;;;4913194;29;20707;-89
2024/02/04 12:44:20;;;;;;;0.38;0.38;;;;;;;;;;4902628;29;20212;-90
2024/02/04 12:47:28;;;;;;;0.30;0.30;;;;;;;;;;4909352;29;20253;-90
2024/02/04 12:50:35;;;;;;;0.30;0.30;;;;;;;;;;4891714;29;20188;-89
2024/02/04 12:53:43;;;;;;;0.30;0.30;;;;;;;;;;4898228;29;20183;-91
2024/02/04 13:00:23;;;;;;;0.50;0.50;;;;;;;;;;4910198;29;20253;-91
2024/02/04 13:03:30;;;;;;;0.43;0.43;;;;;;;;;;4912252;29;20215;-91
2024/02/04 13:06:40;;;;;;;0.50;0.50;;;;;;;;;;4914367;29;20211;-90
2024/02/04 13:09:46;;;;;;;0.30;0.30;;;;;;;;;;4910732;29;20248;-88
2024/02/04 13:16:23;;;;;;;0.40;0.40;;;;;;;;;;4901012;29;20192;-88
2024/02/04 13:19:35;;;;;;;0.60;0.43;;;;;;;;;;4922309;29;20201;-88
2024/02/04 13:22:41;;;;;;;0.47;0.47;;;;;;;;;;4925226;29;20677;-91
2024/02/04 13:25:47;;;;;;;0.30;0.30;;;;;;;;;;4899139;29;20216;-90
2024/02/04 13:28:52;;;;;;;0.30;0.30;;;;;;;;;;4911608;29;20248;-89
2024/02/04 13:31:58;;;;;;;0.30;0.30;;;;;;;;;;4911914;29;20204;-90
2024/02/04 13:35:05;;;;;;;0.30;0.30;;;;;;;;;;4912186;29;20188;-89
2024/02/04 13:38:11;;;;;;;0.30;0.30;;;;;;;;;;4912501;29;20325;-90
2024/02/04 13:41:19;;;;;;;0.30;0.30;;;;;;;;;;4912511;29;20225;-88
2024/02/04 13:44:24;;;;;;;0.50;0.50;;;;;;;;;;4928167;29;20212;-90
2024/02/04 13:47:29;;;;;;;0.50;0.50;;;;;;;;;;4914181;29;20216;-89
2024/02/04 13:50:38;;;;;;;0.40;0.40;;;;;;;;;;4930623;29;20258;-88
2024/02/04 13:53:43;;;;;;;0.30;0.30;;;;;;;;;;4919025;29;20310;-89
2024/02/04 13:56:48;;;;;;;0.40;0.40;;;;;;;;;;4905546;29;20574;-89
2024/02/04 13:59:55;;;;;;;0.30;0.30;;;;;;;;;;4912901;29;20212;-89
2024/02/04 14:03:01;;;;;;;0.30;0.30;;;;;;;;;;4910303;29;20219;-89
2024/02/04 14:06:08;;;;;;;0.30;0.30;;;;;;;;;;4906166;29;20213;-88
2024/02/04 14:09:13;;;;;;;9.68;0.73;;;;;;;;;;4910156;29;20228;-89
2024/02/04 14:12:19;;;;;;;0.30;0.30;;;;;;;;;;4909211;29;20212;-89
2024/02/04 14:15:25;;;;;;;1.23;0.60;;;;;;;;;;4924606;29;20212;-88
2024/02/04 14:18:31;;;;;;;0.30;0.30;;;;;;;;;;4906840;29;20212;-90
2024/02/04 14:21:41;;;;;;;0.85;0.70;;;;;;;;;;4937139;29;20204;-90
2024/02/04 14:24:46;;;;;;;0.30;0.30;;;;;;;;;;4929098;29;20195;-90
2024/02/04 14:27:52;;;;;;;0.35;0.35;;;;;;;;;;4899167;29;20207;-89
2024/02/04 14:30:57;;;;;;;0.45;0.45;;;;;;;;;;4920124;29;20227;-90
2024/02/04 14:34:02;;;;;;;0.30;0.30;;;;;;;;;;4911596;29;20345;-90
2024/02/04 14:37:13;;;;;;;0.32;0.32;;;;;;;;;;4913414;29;20208;-89
2024/02/04 14:40:18;;;;;;;0.52;0.52;;;;;;;;;;4918754;29;20224;-88
2024/02/04 14:43:24;;;;;;;0.35;0.35;;;;;;;;;;4910356;29;20192;-90
2024/02/04 14:46:31;;;;;;;0.30;0.30;;;;;;;;;;4910718;29;20200;-89
2024/02/04 14:49:39;;;;;;;0.30;0.30;;;;;;;;;;4900512;29;20228;-89
2024/02/04 14:52:55;;;;;;;0.40;0.40;;;;;;;;;;4906799;29;20196;-89
2024/02/04 14:56:02;;;;;;;0.63;0.50;;;;;;;;;;4910780;29;20214;-90
2024/02/04 14:59:07;;;;;;;0.30;0.30;;;;;;;;;;4922849;29;20212;-91
2024/02/04 15:02:12;;;;;;;0.30;0.30;;;;;;;;;;4933403;29;20196;-90
2024/02/04 15:05:18;;;;;;;0.30;0.30;;;;;;;;;;4931653;29;20191;-90
2024/02/04 15:08:33;;;;;;;0.30;0.30;;;;;;;;;;4920600;29;20228;-90
2024/02/04 15:11:38;;;;;;;0.40;0.40;;;;;;;;;;4910947;29;20279;-91
2024/02/04 15:14:44;;;;;;;0.50;0.50;;;;;;;;;;4910262;29;20265;-88
2024/02/04 15:17:49;;;;;;;0.30;0.30;;;;;;;;;;4929721;29;20554;-89
2024/02/04 15:20:55;;;;;;;1.83;0.57;;;;;;;;;;4931309;29;20187;-91
2024/02/04 15:24:04;;;;;;;0.35;0.35;;;;;;;;;;4930278;29;20191;-89
2024/02/04 15:27:11;;;;;;;0.30;0.30;;;;;;;;;;4897530;29;20211;-89
2024/02/04 15:30:16;;;;;;;0.40;0.40;;;;;;;;;;4909507;29;20256;-89
2024/02/04 15:33:26;;;;;;;0.30;0.30;;;;;;;;;;4911496;29;20309;-87
2024/02/04 15:36:32;;;;;;;1.75;1.08;;;;;;;;;;4913034;29;20205;-91
2024/02/04 15:39:38;;;;;;;8.68;2.40;;;;;;;;;;4910743;29;20216;-88
2024/02/04 15:42:44;;;;;;;2.05;1.00;;;;;;;;;;4912718;29;20288;-89
2024/02/04 15:45:50;;;;;;;2.47;1.23;;;;;;;;;;4908850;29;20192;-90
2024/02/04 15:48:56;;;;;;;2.95;1.45;;;;;;;;;;4891133;29;20224;-90
2024/02/04 15:52:02;;;;;;;2.40;1.02;;;;;;;;;;4925287;29;20199;-91
2024/02/04 15:55:13;;;;;;;2.15;1.08;;;;;;;;;;4933797;29;20593;-89
2024/02/04 15:58:19;;;;;;;3.40;1.40;;;;;;;;;;4919494;29;20200;-88
2024/02/04 16:01:25;;;;;;;2.45;1.25;;;;;;;;;;4916932;29;20205;-89
2024/02/04 16:04:31;;;;;;;2.50;1.50;;;;;;;;;;4922998;29;20193;-89
2024/02/04 16:07:36;;;;;;;12.93;5.53;;;;;;;;;;4894675;29;20259;-89
2024/02/04 16:10:44;;;;;;;16.45;7.50;;;;;;;;;;4895807;29;20216;-91
2024/02/04 16:13:52;;;;;;;10.45;5.45;;;;;;;;;;4909291;29;20201;-89
2024/02/04 16:17:01;;;;;;;2.88;1.52;;;;;;;;;;4910752;29;20201;-89
2024/02/04 16:20:08;;;;;;;4.78;1.77;;;;;;;;;;4916304;29;20196;-89
2024/02/04 16:23:14;;;;;;;5.97;3.08;;;;;;;;;;4910295;29;20201;-90
2024/02/04 16:26:22;;;;;;;2.97;1.42;;;;;;;;;;4909868;29;20251;-89
2024/02/04 16:29:28;;;;;;;27.73;10.02;;;;;;;;;;4910023;29;20230;-90
2024/02/04 16:32:34;;;;;;;15.02;7.65;;;;;;;;;;4912429;29;20297;-90
2024/02/04 16:35:39;;;;;;;3.75;1.88;;;;;;;;;;4919104;29;20200;-89
2024/02/04 16:38:44;;;;;;;2.42;1.08;;;;;;;;;;4917895;29;20188;-90
2024/02/04 16:41:52;;;;;;;2.15;0.95;;;;;;;;;;4928274;29;20235;-89
2024/02/04 16:44:57;;;;;;;2.85;1.10;;;;;;;;;;4927768;29;20188;-89
2024/02/04 16:48:03;;;;;;;2.55;1.13;;;;;;;;;;4924612;29;20356;-90
2024/02/04 16:51:08;;;;;;;1.58;1.05;;;;;;;;;;4907389;29;20230;-89
2024/02/04 16:54:17;;;;;;;3.78;1.00;;;;;;;;;;4916641;29;20180;-89
2024/02/04 16:57:25;;;;;;;5.40;1.65;;;;;;;;;;4914880;29;20201;-91
2024/02/04 17:00:30;;;;;;;2.20;1.20;;;;;;;;;;4915836;29;20253;-88
2024/02/04 17:03:36;;;;;;;2.08;1.00;;;;;;;;;;4905847;29;20197;-89
2024/02/04 17:06:44;;;;;;;3.10;1.05;;;;;;;;;;4912111;29;20184;-90
2024/02/04 17:09:52;;;;;;;1.25;0.93;;;;;;;;;;4929721;29;20223;-91
2024/02/04 17:12:59;;;;;;;2.38;1.27;;;;;;;;;;4920353;29;20261;-90
2024/02/04 17:16:10;;;;;;;2.08;1.20;;;;;;;;;;4912074;29;20209;-89
2024/02/04 17:19:23;;;;;;;3.92;1.40;;;;;;;;;;4925184;29;20301;-89
2024/02/04 17:22:31;;;;;;;4.35;1.75;;;;;;;;;;4920372;29;20188;-89
2024/02/04 17:25:39;;;;;;;1.92;1.45;;;;;;;;;;4917623;29;20193;-88
2024/02/04 17:28:47;;;;;;;3.65;1.27;;;;;;;;;;4914785;29;20719;-90
2024/02/04 17:31:54;;;;;;;9.02;2.78;;;;;;;;;;4915328;29;20216;-91
2024/02/04 17:35:01;;;;;;;2.60;1.67;;;;;;;;;;4911515;29;20210;-88
2024/02/04 17:38:06;;;;;;;3.45;1.30;;;;;;;;;;4915097;29;20212;-87
2024/02/04 17:41:12;;;;;;;2.25;1.10;;;;;;;;;;4907515;29;20220;-89
2024/02/04 17:44:19;;;;;;;6.18;2.97;;;;;;;;;;4901295;29;20209;-91
2024/02/04 17:47:29;;;;;;;4.47;2.35;;;;;;;;;;4911904;29;20287;-89
2024/02/04 17:50:34;;;;;;;4.72;1.65;;;;;;;;;;4912419;29;20224;-90
2024/02/04 17:53:40;;;;;;;5.57;1.80;;;;;;;;;;4911468;29;20204;-90
2024/02/04 17:56:46;;;;;;;3.28;1.15;;;;;;;;;;4913989;29;20242;-89
2024/02/04 17:59:52;;;;;;;5.63;1.00;;;;;;;;;;4915093;29;20233;-88
2024/02/04 18:02:57;;;;;;;3.20;1.30;;;;;;;;;;4912450;29;20200;-89
2024/02/04 18:06:03;;;;;;;7.18;1.80;;;;;;;;;;4915432;29;20233;-90
2024/02/04 18:09:10;;;;;;;4.85;1.88;;;;;;;;;;4919305;29;20204;-89
2024/02/04 18:12:18;;;;;;;2.80;1.00;;;;;;;;;;4911048;29;20180;-89
2024/02/04 18:15:25;;;;;;;2.80;1.40;;;;;;;;;;4911599;29;20197;-93
2024/02/04 18:18:30;;;;;;;4.22;1.40;;;;;;;;;;4911351;29;20297;-90
2024/02/04 18:21:36;;;;;;;4.07;1.55;;;;;;;;;;4911706;29;20671;-92
2024/02/04 18:24:42;;;;;;;8.05;2.88;;;;;;;;;;4909313;29;20189;-90
2024/02/04 18:27:47;;;;;;;5.97;2.65;;;;;;;;;;4923691;29;20187;-90
2024/02/04 18:30:55;;;;;;;7.05;3.60;;;;;;;;;;4934433;29;20219;-90
2024/02/04 18:34:01;;;;;;;8.35;4.10;;;;;;;;;;4934324;29;20257;-91
2024/02/04 18:37:06;;;;;;;10.77;4.30;;;;;;;;;;4894462;29;20538;-89
2024/02/04 18:40:12;;;;;;;19.35;8.30;;;;;;;;;;4908428;29;20189;-88
2024/02/04 18:43:17;;;;;;;7.25;3.40;;;;;;;;;;4897156;29;20192;-89
2024/02/04 18:46:25;;;;;;;17.80;9.70;;;;;;;;;;4897811;29;20200;-89